Time;durP1;ratioP1;P1;durP2;ratioP2;P2;SDS_P1;SDS_P2;PMS_P1;PMS_P2;Temp;Humidity;BMP_temperature;BMP_pressure;BME280_temperature;BME280_humidity;BME280_pressure;Samples;Min_cycle;Max_cycle;Signal;HPM_P1;HPM_P2
2021/10/04 00:01:56;;;;;;;5.75;3.17;;;;;;;9.40;55.18;100991.28;5027812;28;20122;-67
2021/10/04 00:04:21;;;;;;;8.90;3.30;;;;;;;9.40;55.09;100997.34;5013351;28;20045;-66
2021/10/04 00:06:47;;;;;;;8.25;3.30;;;;;;;9.32;55.73;100999.34;5030486;28;20177;-67
2021/10/04 00:09:12;;;;;;;4.75;2.40;;;;;;;9.34;55.26;100996.69;5031486;28;20096;-69
2021/10/04 00:11:38;;;;;;;5.57;2.85;;;;;;;9.10;56.34;100998.34;5021150;28;20516;-68
2021/10/04 00:14:04;;;;;;;7.95;3.35;;;;;;;9.29;55.44;100994.22;5008592;28;20062;-68
2021/10/04 00:16:30;;;;;;;3.65;2.08;;;;;;;9.18;55.78;100997.19;5005386;28;20111;-68
2021/10/04 00:18:55;;;;;;;8.13;2.47;;;;;;;9.08;56.19;100993.19;5007941;28;20042;-70
2021/10/04 00:21:21;;;;;;;7.68;2.70;;;;;;;9.16;55.89;100985.09;5009257;28;20043;-68
2021/10/04 00:23:46;;;;;;;4.25;2.50;;;;;;;9.21;55.58;100991.03;5009350;28;20038;-68
2021/10/04 00:26:12;;;;;;;4.90;2.67;;;;;;;9.06;55.63;100991.53;5009915;28;20067;-72
2021/10/04 00:28:38;;;;;;;3.08;1.88;;;;;;;9.14;55.73;100995.59;5009495;28;20037;-66
2021/10/04 00:31:04;;;;;;;4.10;2.97;;;;;;;9.13;55.65;100987.81;4993090;28;20038;-69
2021/10/04 00:33:29;;;;;;;6.15;2.72;;;;;;;9.05;56.16;100995.84;4994049;28;20084;-65
2021/10/04 00:35:55;;;;;;;4.82;2.60;;;;;;;9.09;55.82;101004.44;5010174;28;20514;-66
2021/10/04 00:38:20;;;;;;;7.38;2.50;;;;;;;9.24;55.59;101008.34;5012025;28;20057;-64
2021/10/04 00:40:46;;;;;;;3.55;2.10;;;;;;;9.05;56.10;101010.66;4997489;28;20065;-65
2021/10/04 00:43:11;;;;;;;8.23;2.60;;;;;;;9.10;55.96;101007.03;5010524;28;20030;-65
2021/10/04 00:45:37;;;;;;;6.35;2.50;;;;;;;8.95;56.96;101015.31;5007051;28;20340;-66
2021/10/04 00:48:03;;;;;;;2.88;2.28;;;;;;;9.13;55.79;101013.88;5015276;28;20030;-66
2021/10/04 00:50:30;;;;;;;2.92;2.10;;;;;;;9.17;55.93;101026.78;5027621;28;20261;-66
2021/10/04 00:52:56;;;;;;;4.05;1.90;;;;;;;9.16;55.59;101027.69;5032270;28;20033;-66
2021/10/04 00:55:22;;;;;;;4.47;1.95;;;;;;;8.96;56.17;101023.09;5029089;28;20052;-65
2021/10/04 00:57:48;;;;;;;4.22;2.42;;;;;;;9.13;56.03;101040.81;5032033;28;20073;-66
2021/10/04 01:00:17;;;;;;;5.93;2.65;;;;;;;9.15;55.74;101032.94;5029093;28;20042;-66
2021/10/04 01:02:43;;;;;;;8.30;2.17;;;;;;;9.06;56.45;101022.81;5020424;28;20038;-67
2021/10/04 01:05:09;;;;;;;5.93;3.17;;;;;;;9.18;56.22;101045.88;5010489;28;20104;-63
2021/10/04 01:07:35;;;;;;;6.43;2.22;;;;;;;9.25;55.83;101055.22;5009687;28;20029;-64
2021/10/04 01:10:02;;;;;;;8.50;2.58;;;;;;;9.34;55.75;101049.72;5009604;28;20038;-64
2021/10/04 01:12:28;;;;;;;6.88;2.80;;;;;;;9.26;56.07;101043.03;5010537;28;20136;-64
2021/10/04 01:14:53;;;;;;;4.47;2.08;;;;;;;9.33;55.71;101048.00;5010054;28;20522;-64
2021/10/04 01:17:19;;;;;;;4.70;2.15;;;;;;;9.42;55.34;101041.63;5013282;28;20058;-64
2021/10/04 01:19:44;;;;;;;3.65;2.40;;;;;;;9.31;55.67;101060.25;4989404;28;20038;-62
2021/10/04 01:22:10;;;;;;;4.90;1.98;;;;;;;9.39;55.16;101070.44;5009277;28;20526;-64
2021/10/04 01:24:36;;;;;;;7.40;2.58;;;;;;;9.36;54.99;101076.59;4994170;28;20091;-63
2021/10/04 01:27:03;;;;;;;7.50;1.77;;;;;;;9.28;55.52;101078.59;5009301;28;20030;-68
2021/10/04 01:29:29;;;;;;;8.25;2.30;;;;;;;9.32;55.60;101076.72;5008564;28;20072;-68
2021/10/04 01:31:54;;;;;;;3.80;2.15;;;;;;;9.32;55.15;101059.34;5008229;28;20593;-68
2021/10/04 01:34:20;;;;;;;4.72;2.22;;;;;;;9.24;55.54;101073.53;5011526;28;20038;-67
2021/10/04 01:36:45;;;;;;;6.93;1.77;;;;;;;9.25;55.23;101081.28;5008476;28;20529;-67
2021/10/04 01:39:11;;;;;;;5.32;2.20;;;;;;;9.15;55.42;101066.84;5010916;28;20172;-67
2021/10/04 01:41:36;;;;;;;6.82;2.85;;;;;;;9.24;55.58;101074.38;5010376;28;20081;-67
2021/10/04 01:44:02;;;;;;;5.22;2.08;;;;;;;9.14;55.57;101075.56;5012994;28;20049;-68
2021/10/04 01:46:28;;;;;;;6.65;2.20;;;;;;;9.25;55.28;101083.91;5012362;28;20324;-67
2021/10/04 01:48:53;;;;;;;5.70;1.98;;;;;;;9.27;55.41;101086.47;5010702;28;20022;-67
2021/10/04 01:51:19;;;;;;;5.72;2.15;;;;;;;9.23;55.80;101093.56;4994428;28;20042;-68
2021/10/04 01:53:45;;;;;;;5.50;2.08;;;;;;;9.21;55.70;101107.50;4980490;28;20525;-64
2021/10/04 01:56:11;;;;;;;8.07;2.80;;;;;;;9.15;55.99;101103.34;5011264;28;20132;-64
2021/10/04 01:58:36;;;;;;;9.68;2.40;;;;;;;9.10;56.28;101113.09;5007631;28;20412;-64
2021/10/04 02:01:03;;;;;;;5.90;2.25;;;;;;;9.21;55.84;101116.22;5010534;28;20045;-65
2021/10/04 02:03:28;;;;;;;7.97;2.60;;;;;;;9.05;56.01;101109.72;5010170;28;20450;-64
2021/10/04 02:05:56;;;;;;;3.88;1.80;;;;;;;9.23;55.66;101110.94;4992611;28;20045;-65
2021/10/04 02:08:21;;;;;;;6.22;2.03;;;;;;;9.08;55.99;101105.28;5008041;28;20065;-66
2021/10/04 02:10:47;;;;;;;6.75;1.95;;;;;;;9.23;55.89;101122.25;5010072;28;20053;-67
2021/10/04 02:13:13;;;;;;;7.65;2.30;;;;;;;9.23;56.07;101118.75;5012118;28;20065;-68
2021/10/04 02:15:40;;;;;;;7.88;2.78;;;;;;;9.10;56.39;101128.72;5009424;28;20037;-67
2021/10/04 02:18:07;;;;;;;5.80;2.00;;;;;;;9.21;56.37;101141.41;5012153;28;20030;-67
2021/10/04 02:20:36;;;;;;;6.47;1.83;;;;;;;9.15;56.03;101143.31;5008501;28;20045;-68
2021/10/04 02:23:08;;;;;;;3.60;1.90;;;;;;;9.19;56.00;101144.09;5010481;28;20116;-64
2021/10/04 02:25:38;;;;;;;6.30;1.90;;;;;;;9.15;56.62;101147.69;5005261;28;20044;-64
2021/10/04 02:28:05;;;;;;;4.30;1.90;;;;;;;9.22;56.22;101141.38;5008436;28;20422;-64
2021/10/04 02:30:31;;;;;;;5.57;1.33;;;;;;;9.29;55.95;101136.84;5010736;28;20034;-67
2021/10/04 02:32:57;;;;;;;7.63;1.70;;;;;;;9.22;56.36;101120.53;5009953;28;20030;-66
2021/10/04 02:35:23;;;;;;;1.92;1.00;;;;;;;9.26;56.05;101119.53;5007641;28;20037;-66
2021/10/04 02:37:50;;;;;;;4.60;1.88;;;;;;;9.27;56.03;101121.22;4993998;28;20549;-66
2021/10/04 02:40:15;;;;;;;3.75;2.00;;;;;;;9.46;55.37;101120.69;5006450;28;20042;-64
2021/10/04 02:42:42;;;;;;;4.05;1.45;;;;;;;9.35;55.91;101129.69;5011764;28;20034;-65
2021/10/04 02:45:10;;;;;;;4.40;1.42;;;;;;;9.55;55.02;101121.22;5009631;28;20103;-67
2021/10/04 02:47:36;;;;;;;7.38;1.45;;;;;;;9.46;55.71;101116.31;5010939;28;20537;-67
2021/10/04 02:50:03;;;;;;;4.18;1.60;;;;;;;9.39;55.34;101115.63;4975005;28;20589;-66
2021/10/04 02:52:29;;;;;;;5.65;1.42;;;;;;;9.50;54.89;101128.34;5005508;28;20026;-66
2021/10/04 02:54:54;;;;;;;10.45;1.33;;;;;;;9.09;56.20;101132.22;5008215;28;20080;-65
2021/10/04 02:57:20;;;;;;;5.80;1.65;;;;;;;9.14;56.31;101148.56;5014955;28;20098;-67
2021/10/04 02:59:45;;;;;;;13.77;1.70;;;;;;;9.14;56.84;101145.97;5008118;28;20065;-65
2021/10/04 03:02:11;;;;;;;5.15;1.40;;;;;;;9.30;56.10;101141.16;5007749;28;20114;-64
2021/10/04 03:04:36;;;;;;;4.35;1.42;;;;;;;9.48;55.19;101142.34;5008507;28;20046;-64
2021/10/04 03:07:02;;;;;;;1.85;0.90;;;;;;;9.61;55.10;101141.06;4992394;28;20475;-65
2021/10/04 03:09:27;;;;;;;2.55;0.80;;;;;;;9.53;55.12;101143.06;4995804;28;20538;-65
2021/10/04 03:11:53;;;;;;;2.67;1.05;;;;;;;9.47;55.31;101138.88;5003697;28;20065;-64
2021/10/04 03:14:18;;;;;;;10.13;1.67;;;;;;;9.50;55.16;101138.78;5008495;28;20050;-65
2021/10/04 03:16:44;;;;;;;2.53;1.10;;;;;;;9.45;54.92;101127.63;5005906;28;20044;-65
2021/10/04 03:19:09;;;;;;;4.32;1.08;;;;;;;9.30;55.54;101131.59;5008504;28;20041;-64
2021/10/04 03:21:35;;;;;;;4.50;1.42;;;;;;;9.19;56.13;101121.47;5008149;28;20437;-64
2021/10/04 03:24:00;;;;;;;5.05;1.10;;;;;;;9.38;55.37;101137.41;4989950;28;20050;-66
2021/10/04 03:26:26;;;;;;;5.25;1.35;;;;;;;9.39;55.60;101136.50;5006984;28;20040;-65
2021/10/04 03:28:52;;;;;;;2.72;1.23;;;;;;;9.32;55.54;101140.22;5009225;28;20584;-65
2021/10/04 03:31:17;;;;;;;8.68;1.00;;;;;;;9.42;55.41;101132.09;5009757;28;20573;-64
2021/10/04 03:33:43;;;;;;;3.70;1.20;;;;;;;9.05;56.76;101139.25;4995009;28;20038;-66
2021/10/04 03:36:08;;;;;;;1.63;0.70;;;;;;;9.28;56.05;101142.97;5004918;28;20042;-66
2021/10/04 03:38:34;;;;;;;10.73;1.42;;;;;;;9.32;55.63;101144.56;5008800;28;20588;-65
2021/10/04 03:40:59;;;;;;;5.18;0.88;;;;;;;9.30;55.72;101149.84;5006715;28;20073;-66
2021/10/04 03:43:25;;;;;;;3.88;1.17;;;;;;;9.37;55.57;101164.41;5009692;28;20402;-65
2021/10/04 03:45:50;;;;;;;6.18;0.93;;;;;;;9.51;55.44;101165.72;4977060;28;20506;-65
2021/10/04 03:48:16;;;;;;;5.75;1.33;;;;;;;9.42;55.41;101160.81;5006082;28;20542;-65
2021/10/04 03:50:42;;;;;;;6.22;0.90;;;;;;;9.59;55.12;101163.75;5006426;28;20046;-65
2021/10/04 03:53:08;;;;;;;1.77;0.77;;;;;;;9.57;54.73;101160.34;5000318;28;20320;-67
2021/10/04 03:55:34;;;;;;;1.40;0.55;;;;;;;9.56;55.14;101163.81;5008633;28;20136;-67
2021/10/04 03:57:59;;;;;;;2.53;0.90;;;;;;;9.54;54.98;101165.63;5015285;28;20056;-65
2021/10/04 04:00:27;;;;;;;9.50;1.00;;;;;;;9.40;55.53;101177.34;5010562;28;20065;-67
2021/10/04 04:02:53;;;;;;;3.35;1.08;;;;;;;9.46;55.47;101178.91;5015528;28;20618;-63
2021/10/04 04:05:19;;;;;;;4.38;1.38;;;;;;;9.48;54.99;101173.66;5013333;28;20123;-66
2021/10/04 04:07:45;;;;;;;4.60;0.85;;;;;;;9.53;55.28;101174.38;5014623;28;20394;-65
2021/10/04 04:10:12;;;;;;;4.18;1.05;;;;;;;9.50;55.01;101184.88;5011920;28;20077;-66
2021/10/04 04:12:38;;;;;;;4.35;1.13;;;;;;;9.40;55.16;101193.00;4997480;28;20030;-66
2021/10/04 04:15:05;;;;;;;3.75;0.80;;;;;;;9.19;56.15;101193.66;5013063;28;20045;-65
2021/10/04 04:17:31;;;;;;;7.03;1.00;;;;;;;9.18;56.17;101191.91;5009800;28;20038;-65
2021/10/04 04:19:57;;;;;;;4.50;0.70;;;;;;;9.49;54.79;101201.44;4966707;28;20034;-64
2021/10/04 04:22:23;;;;;;;2.53;0.70;;;;;;;9.38;55.20;101201.75;5012963;28;20131;-65
2021/10/04 04:24:48;;;;;;;5.45;0.93;;;;;;;9.45;55.41;101212.88;5012086;28;20037;-65
2021/10/04 04:27:13;;;;;;;2.25;0.70;;;;;;;9.46;54.87;101209.38;5013182;28;20037;-66
2021/10/04 04:29:40;;;;;;;5.07;0.95;;;;;;;9.40;55.11;101211.25;5012503;28;20515;-66
2021/10/04 04:32:08;;;;;;;6.15;1.05;;;;;;;9.47;54.86;101198.03;5010441;28;20034;-65
2021/10/04 04:34:34;;;;;;;3.15;0.80;;;;;;;9.42;55.21;101206.00;5013625;28;20102;-65
2021/10/04 04:37:00;;;;;;;4.47;0.82;;;;;;;9.32;55.79;101213.25;5009721;28;20132;-65
2021/10/04 04:39:26;;;;;;;4.20;0.43;;;;;;;9.39;55.45;101204.34;5008673;28;20042;-65
2021/10/04 04:41:53;;;;;;;2.58;0.43;;;;;;;9.42;54.83;101218.19;5010988;28;20095;-65
2021/10/04 04:44:18;;;;;;;1.92;0.50;;;;;;;9.34;55.20;101208.84;5011025;28;20077;-65
2021/10/04 04:46:44;;;;;;;5.60;0.50;;;;;;;9.33;55.25;101203.66;4993457;28;20160;-68
2021/10/04 04:49:10;;;;;;;2.42;0.60;;;;;;;9.36;54.91;101204.41;4992215;28;20041;-65
2021/10/04 04:51:35;;;;;;;2.60;0.57;;;;;;;9.24;55.24;101210.00;5012107;28;20084;-65
2021/10/04 04:54:01;;;;;;;5.28;1.75;;;;;;;9.14;55.87;101213.75;5008712;28;20054;-65
2021/10/04 04:56:27;;;;;;;2.50;0.45;;;;;;;9.19;55.69;101217.13;4995973;28;20144;-65
2021/10/04 04:58:53;;;;;;;11.45;1.13;;;;;;;9.28;55.36;101226.44;4991756;28;20124;-65
2021/10/04 05:01:18;;;;;;;4.43;0.65;;;;;;;9.21;55.41;101223.16;5011244;28;20199;-66
2021/10/04 05:03:44;;;;;;;4.07;1.08;;;;;;;9.04;55.67;101222.75;5010705;28;20080;-66
2021/10/04 05:06:09;;;;;;;7.30;1.65;;;;;;;9.15;55.69;101231.13;4993504;28;20038;-65
2021/10/04 05:08:35;;;;;;;1.80;0.60;;;;;;;9.13;55.54;101233.78;5009684;28;20474;-66
2021/10/04 05:11:00;;;;;;;7.28;0.70;;;;;;;9.00;55.72;101237.63;5011515;28;20101;-65
2021/10/04 05:13:26;;;;;;;1.83;1.17;;;;;;;8.93;56.45;101236.94;5011029;28;20487;-65
2021/10/04 05:15:51;;;;;;;5.57;1.70;;;;;;;9.10;55.85;101233.03;5010964;28;20097;-64
2021/10/04 05:18:16;;;;;;;4.50;0.65;;;;;;;9.13;55.69;101238.16;5010936;28;20041;-66
2021/10/04 05:20:42;;;;;;;9.50;0.80;;;;;;;9.02;56.19;101245.41;5010158;28;20056;-65
2021/10/04 05:23:07;;;;;;;4.43;0.60;;;;;;;8.97;56.31;101259.44;5011089;28;20108;-65
2021/10/04 05:25:33;;;;;;;4.15;0.77;;;;;;;8.94;56.42;101258.63;5009553;28;20774;-65
2021/10/04 05:27:58;;;;;;;2.88;0.82;;;;;;;8.89;56.60;101265.75;5009302;28;20442;-65
2021/10/04 05:30:24;;;;;;;5.43;0.75;;;;;;;8.93;56.88;101272.59;5009088;28;20469;-64
2021/10/04 05:32:49;;;;;;;5.97;1.27;;;;;;;8.93;56.41;101273.44;5011815;28;20038;-64
2021/10/04 05:35:16;;;;;;;3.40;0.70;;;;;;;9.07;56.30;101280.88;5007264;28;20054;-64
2021/10/04 05:37:41;;;;;;;1.70;1.08;;;;;;;9.01;56.52;101278.47;5011786;28;20045;-65
2021/10/04 05:40:08;;;;;;;3.17;0.65;;;;;;;9.01;56.42;101272.38;5009378;28;20988;-66
2021/10/04 05:42:33;;;;;;;3.92;1.13;;;;;;;9.06;56.28;101267.91;5007802;28;20033;-66
2021/10/04 05:45:00;;;;;;;6.07;0.88;;;;;;;9.21;55.66;101275.31;5011109;28;20330;-65
2021/10/04 05:47:26;;;;;;;4.45;0.75;;;;;;;9.22;55.65;101284.81;5009706;28;20037;-66
2021/10/04 05:49:52;;;;;;;3.13;0.73;;;;;;;9.07;56.21;101274.81;5010115;28;20041;-68
2021/10/04 05:52:18;;;;;;;2.50;0.55;;;;;;;9.15;56.20;101278.06;5008104;28;20494;-67
2021/10/04 05:54:43;;;;;;;2.90;1.08;;;;;;;9.34;55.63;101271.47;5009103;28;20041;-66
2021/10/04 05:57:09;;;;;;;3.70;0.73;;;;;;;9.27;55.93;101272.50;5009648;28;20057;-66
2021/10/04 05:59:34;;;;;;;2.55;0.57;;;;;;;9.47;55.38;101271.09;5008145;28;20038;-66
2021/10/04 06:02:00;;;;;;;2.00;0.52;;;;;;;9.37;55.62;101263.53;5011703;28;20046;-66
2021/10/04 06:04:25;;;;;;;5.88;0.57;;;;;;;9.51;55.68;101276.16;5007719;28;20038;-66
2021/10/04 06:06:51;;;;;;;8.15;1.30;;;;;;;9.56;55.31;101282.09;5007244;28;20060;-65
2021/10/04 06:09:16;;;;;;;2.55;0.88;;;;;;;9.69;55.13;101285.22;4992291;28;20054;-66
2021/10/04 06:11:42;;;;;;;5.85;0.75;;;;;;;9.53;55.27;101286.56;5008280;28;20053;-66
2021/10/04 06:14:07;;;;;;;2.67;0.70;;;;;;;9.53;55.71;101283.97;5010057;28;20387;-67
2021/10/04 06:16:33;;;;;;;2.00;0.75;;;;;;;9.65;55.34;101288.81;4992196;28;20037;-66
2021/10/04 06:18:58;;;;;;;4.35;0.55;;;;;;;9.68;55.00;101283.53;4996465;28;20057;-66
2021/10/04 06:21:24;;;;;;;4.55;0.40;;;;;;;9.77;54.74;101293.69;4993071;28;20466;-67
2021/10/04 06:23:49;;;;;;;1.55;0.32;;;;;;;9.73;55.16;101301.66;5009933;28;20037;-66
2021/10/04 06:26:15;;;;;;;4.05;0.20;;;;;;;9.68;55.05;101312.22;5009415;28;20664;-68
2021/10/04 06:28:40;;;;;;;3.00;0.50;;;;;;;9.65;55.45;101320.13;5007339;28;20540;-66
2021/10/04 06:31:06;;;;;;;2.40;0.40;;;;;;;9.87;54.66;101316.94;5008597;28;20082;-66
2021/10/04 06:33:31;;;;;;;1.10;0.30;;;;;;;9.94;54.39;101311.47;5008060;28;20069;-66
2021/10/04 06:35:57;;;;;;;1.27;0.38;;;;;;;9.77;54.80;101306.72;5006315;28;20392;-66
2021/10/04 06:38:22;;;;;;;5.20;0.40;;;;;;;9.94;54.33;101313.22;5008547;28;20038;-64
2021/10/04 06:40:48;;;;;;;1.10;0.32;;;;;;;9.97;54.57;101314.00;5007190;28;20046;-65
2021/10/04 06:43:13;;;;;;;1.08;0.35;;;;;;;10.15;53.81;101309.13;5007810;28;20065;-65
2021/10/04 06:45:38;;;;;;;2.88;0.43;;;;;;;10.02;54.08;101308.63;5004673;28;20099;-65
2021/10/04 06:48:04;;;;;;;1.88;0.30;;;;;;;10.10;54.15;101317.09;4994628;28;20471;-69
2021/10/04 06:50:30;;;;;;;1.98;0.43;;;;;;;10.15;53.82;101323.03;5006027;28;20226;-67
2021/10/04 06:52:55;;;;;;;0.90;0.30;;;;;;;10.07;54.40;101332.00;5008519;28;20034;-65
2021/10/04 06:55:21;;;;;;;3.90;0.43;;;;;;;9.38;55.64;101340.88;4988726;28;20461;-65
2021/10/04 06:57:47;;;;;;;4.75;0.30;;;;;;;10.15;54.02;101341.31;5008364;28;20116;-66
2021/10/04 07:00:20;;;;;;;12.98;0.73;;;;;;;10.12;54.19;101346.59;5007343;28;20556;-65
2021/10/04 07:02:46;;;;;;;4.30;0.40;;;;;;;10.28;53.72;101352.25;5008599;28;20129;-65
2021/10/04 07:05:11;;;;;;;5.00;0.50;;;;;;;10.44;53.25;101347.38;4988729;28;20472;-65
2021/10/04 07:07:37;;;;;;;0.93;0.40;;;;;;;10.62;52.83;101344.16;4990152;28;20063;-65
2021/10/04 07:10:03;;;;;;;7.07;0.52;;;;;;;10.49;53.33;101345.47;5004159;28;20103;-65
2021/10/04 07:12:29;;;;;;;2.72;0.30;;;;;;;10.74;52.68;101350.75;5006144;28;20037;-65
2021/10/04 07:14:55;;;;;;;2.65;0.40;;;;;;;10.42;53.33;101360.50;4977755;28;20491;-65
2021/10/04 07:17:21;;;;;;;2.17;0.35;;;;;;;10.46;53.08;101366.50;4991120;28;20093;-65
2021/10/04 07:19:46;;;;;;;3.05;0.30;;;;;;;10.28;54.18;101374.88;4986295;28;20665;-66
2021/10/04 07:22:12;;;;;;;3.03;0.50;;;;;;;10.54;53.50;101369.69;5006799;28;20119;-64
2021/10/04 07:24:38;;;;;;;2.67;0.47;;;;;;;10.55;53.14;101366.19;5002923;28;20044;-66
2021/10/04 07:27:04;;;;;;;2.05;0.47;;;;;;;10.47;53.13;101368.19;5008800;28;20042;-66
2021/10/04 07:29:30;;;;;;;1.45;0.30;;;;;;;10.65;52.40;101374.59;5007185;28;20046;-66
2021/10/04 07:31:56;;;;;;;0.98;0.40;;;;;;;10.16;53.79;101374.34;4989790;28;20514;-66
2021/10/04 07:34:22;;;;;;;6.13;0.55;;;;;;;10.53;53.08;101378.44;5008141;28;20117;-66
2021/10/04 07:36:47;;;;;;;3.47;0.30;;;;;;;10.55;53.28;101387.09;5007707;28;20449;-66
2021/10/04 07:39:13;;;;;;;4.35;0.63;;;;;;;10.39;53.72;101394.56;5008485;28;20045;-66
2021/10/04 07:41:39;;;;;;;3.17;0.60;;;;;;;10.41;53.41;101391.88;5002319;28;20045;-66
2021/10/04 07:44:05;;;;;;;9.63;1.42;;;;;;;10.50;53.27;101401.19;5003054;28;20046;-66
2021/10/04 07:46:30;;;;;;;5.20;0.47;;;;;;;10.70;52.74;101398.81;4988674;28;20447;-66
2021/10/04 07:48:56;;;;;;;1.45;0.40;;;;;;;10.60;53.26;101416.56;5005971;28;20030;-65
2021/10/04 07:51:21;;;;;;;0.88;0.38;;;;;;;10.44;53.78;101420.56;5004051;28;20037;-65
2021/10/04 07:53:48;;;;;;;1.20;0.63;;;;;;;10.20;54.48;101419.53;5007272;28;20038;-65
2021/10/04 07:56:15;;;;;;;3.72;1.27;;;;;;;10.65;53.16;101434.72;5006301;28;20352;-66
2021/10/04 07:58:41;;;;;;;1.15;0.50;;;;;;;10.82;52.21;101421.13;5003191;28;20069;-65
2021/10/04 08:01:06;;;;;;;1.70;0.20;;;;;;;10.97;52.18;101431.09;4970372;28;20153;-66
2021/10/04 08:03:32;;;;;;;3.67;0.35;;;;;;;11.14;51.96;101438.38;5006969;28;20152;-66
2021/10/04 08:05:59;;;;;;;1.20;0.30;;;;;;;11.19;52.11;101428.59;5004049;28;20045;-66
2021/10/04 08:08:24;;;;;;;2.45;0.38;;;;;;;11.24;51.61;101403.16;5003584;28;20041;-65
2021/10/04 08:10:50;;;;;;;1.77;0.30;;;;;;;11.50;51.15;101403.16;5003177;28;20072;-66
2021/10/04 08:13:15;;;;;;;5.07;0.50;;;;;;;11.10;51.74;101409.75;5003869;28;20033;-65
2021/10/04 08:15:41;;;;;;;3.67;0.55;;;;;;;11.27;51.43;101406.59;5004916;28;20592;-66
2021/10/04 08:18:07;;;;;;;1.90;0.40;;;;;;;11.28;51.46;101403.88;5004237;28;20038;-67
2021/10/04 08:20:32;;;;;;;1.90;0.40;;;;;;;10.97;52.14;101418.03;5002849;28;20049;-65
2021/10/04 08:22:58;;;;;;;2.90;0.20;;;;;;;11.29;51.50;101425.69;5003343;28;20053;-65
2021/10/04 08:25:24;;;;;;;2.80;0.40;;;;;;;10.93;52.34;101421.66;4999480;28;20449;-66
2021/10/04 08:27:49;;;;;;;1.38;0.30;;;;;;;11.32;51.48;101421.19;5004101;28;20171;-66
2021/10/04 08:30:15;;;;;;;2.35;0.30;;;;;;;11.29;51.35;101410.84;5006864;28;20100;-67
2021/10/04 08:32:42;;;;;;;3.97;0.30;;;;;;;11.46;51.00;101413.75;4985580;28;20049;-65
2021/10/04 08:35:08;;;;;;;3.33;1.40;;;;;;;11.30;51.73;101423.00;5002963;28;20037;-65
2021/10/04 08:37:34;;;;;;;1.63;0.30;;;;;;;11.59;50.92;101410.66;5004403;28;20038;-65
2021/10/04 08:40:03;;;;;;;4.45;0.20;;;;;;;11.30;51.59;101420.41;5005846;28;20037;-66
2021/10/04 08:42:30;;;;;;;3.38;0.40;;;;;;;11.57;51.01;101415.94;5009177;28;20488;-66
2021/10/04 08:44:56;;;;;;;5.22;0.43;;;;;;;11.69;50.99;101417.31;5003809;28;20185;-65
2021/10/04 08:47:22;;;;;;;4.82;0.50;;;;;;;11.39;51.19;101408.75;5006767;28;20088;-66
2021/10/04 08:49:48;;;;;;;1.73;0.70;;;;;;;11.12;51.39;101423.66;4987923;28;20034;-66
2021/10/04 08:52:14;;;;;;;6.10;0.30;;;;;;;11.44;51.50;101431.25;5006559;28;20412;-66
2021/10/04 08:54:43;;;;;;;3.40;0.30;;;;;;;11.55;51.67;101428.25;4959026;28;71304;-66
2021/10/04 08:57:08;;;;;;;0.95;0.20;;;;;;;11.71;50.77;101444.28;4978643;28;235373;-66
2021/10/04 08:59:34;;;;;;;1.35;0.30;;;;;;;11.88;50.57;101441.91;4975351;28;20049;-65
2021/10/04 09:02:18;;;;;;;1.48;0.25;;;;;;;11.97;50.21;101437.28;4988421;28;20047;-66
2021/10/04 09:04:44;;;;;;;2.05;0.32;;;;;;;11.91;50.29;101440.09;4989892;28;20042;-66
2021/10/04 09:07:09;;;;;;;1.23;0.28;;;;;;;12.01;50.49;101441.50;4987457;28;20303;-66
2021/10/04 09:09:50;;;;;;;2.63;0.30;;;;;;;11.05;52.12;101449.16;4991186;28;20415;-66
2021/10/04 09:12:21;;;;;;;5.50;0.47;;;;;;;11.19;52.00;101443.47;4972378;28;20042;-65
2021/10/04 09:14:46;;;;;;;2.00;0.45;;;;;;;11.84;50.74;101440.34;4985300;28;20085;-66
2021/10/04 09:17:13;;;;;;;3.65;0.30;;;;;;;12.09;50.14;101434.22;4986794;28;20494;-66
2021/10/04 09:19:44;;;;;;;1.88;0.60;;;;;;;12.07;49.75;101430.78;4970309;28;20062;-66
2021/10/04 09:22:09;;;;;;;4.18;0.43;;;;;;;12.16;49.47;101424.34;4983788;28;20054;-66
2021/10/04 09:24:57;;;;;;;4.10;0.73;;;;;;;12.25;49.21;101422.22;4986104;28;20165;-67
2021/10/04 09:27:32;;;;;;;1.48;0.30;;;;;;;12.29;49.16;101421.19;4960556;28;20435;-67
2021/10/04 09:30:03;;;;;;;2.60;0.40;;;;;;;12.60;48.41;101422.63;4984480;28;20104;-66
2021/10/04 09:32:41;;;;;;;2.80;0.30;;;;;;;12.70;48.42;101438.88;4987499;28;20029;-65
2021/10/04 09:35:33;;;;;;;1.50;0.50;;;;;;;12.72;48.34;101447.53;4967747;28;20311;-67
2021/10/04 09:37:58;;;;;;;10.30;0.57;;;;;;;12.98;47.98;101442.97;4965084;28;20451;-66
2021/10/04 09:40:33;;;;;;;4.25;0.40;;;;;;;13.00;47.37;101438.53;4987056;28;20034;-66
2021/10/04 09:42:59;;;;;;;9.63;0.90;;;;;;;12.79;48.51;101440.28;4974416;28;20430;-66
2021/10/04 09:45:25;;;;;;;2.55;0.85;;;;;;;12.56;49.21;101439.38;4986501;28;20042;-66
2021/10/04 09:47:54;;;;;;;3.58;0.38;;;;;;;12.64;48.56;101442.53;4986949;28;20042;-66
2021/10/04 09:50:28;;;;;;;7.57;0.50;;;;;;;11.92;49.96;101433.97;4967782;28;20045;-66
2021/10/04 09:52:57;;;;;;;3.15;0.50;;;;;;;12.06;49.57;101443.00;4989251;28;20068;-66
2021/10/04 09:55:33;;;;;;;2.00;0.50;;;;;;;12.05;49.81;101433.44;4971688;28;20166;-67
2021/10/04 09:57:59;;;;;;;5.47;0.63;;;;;;;12.43;49.40;101433.75;4988852;28;20172;-66
2021/10/04 10:00:26;;;;;;;4.22;0.50;;;;;;;12.56;48.29;101441.13;4971989;28;20065;-66
2021/10/04 10:02:56;;;;;;;1.77;0.70;;;;;;;12.77;48.36;101439.47;4969437;28;20566;-66
2021/10/04 10:05:30;;;;;;;3.45;0.60;;;;;;;12.87;48.13;101430.28;4986103;28;20353;-67
2021/10/04 10:07:56;;;;;;;2.47;0.90;;;;;;;13.17;47.23;101445.72;4983181;28;20049;-67
2021/10/04 10:10:22;;;;;;;2.13;0.68;;;;;;;13.42;46.61;101437.63;4987976;28;20510;-67
2021/10/04 10:12:48;;;;;;;2.83;0.55;;;;;;;13.75;46.35;101443.22;4985542;28;20038;-67
2021/10/04 10:15:29;;;;;;;4.25;1.85;;;;;;;13.92;45.60;101430.19;4977241;28;20061;-67
2021/10/04 10:18:06;;;;;;;1.98;0.30;;;;;;;13.51;46.13;101440.72;4983494;28;20061;-67
2021/10/04 10:20:32;;;;;;;1.65;0.45;;;;;;;13.29;46.49;101447.81;4985688;28;20406;-66
2021/10/04 10:22:58;;;;;;;0.73;0.20;;;;;;;14.00;45.91;101429.81;4983595;28;20116;-67
2021/10/04 10:25:38;;;;;;;3.42;0.40;;;;;;;15.14;44.51;101441.03;4987222;28;20511;-66
2021/10/04 10:28:25;;;;;;;5.60;0.38;;;;;;;16.22;42.56;101448.66;4988546;28;20132;-67
2021/10/04 10:30:52;;;;;;;5.22;0.38;;;;;;;16.34;40.04;101444.47;4987776;28;20123;-66
2021/10/04 10:33:58;;;;;;;3.13;0.30;;;;;;;16.31;40.18;101442.88;4961945;28;20455;-66
2021/10/04 10:37:01;;;;;;;4.80;1.33;;;;;;;17.29;39.24;101440.81;4988319;28;20065;-69
2021/10/04 10:39:50;;;;;;;3.97;0.85;;;;;;;16.60;38.99;101443.03;4989273;28;20056;-67
2021/10/04 10:42:20;;;;;;;4.00;0.55;;;;;;;16.91;40.39;101441.28;4967355;28;20046;-67
2021/10/04 10:44:54;;;;;;;3.95;0.52;;;;;;;17.10;39.74;101435.78;4984318;28;20049;-66
2021/10/04 10:47:35;;;;;;;1.73;0.20;;;;;;;17.35;37.84;101436.03;4986990;28;20419;-65
2021/10/04 10:50:16;;;;;;;2.28;0.50;;;;;;;16.88;38.47;101433.56;4982833;28;20042;-67
2021/10/04 10:52:44;;;;;;;2.60;0.40;;;;;;;16.67;39.43;101435.63;4984242;28;20026;-66
2021/10/04 10:55:19;;;;;;;2.50;0.40;;;;;;;17.43;37.65;101432.94;4984189;28;20074;-66
2021/10/04 10:57:47;;;;;;;3.25;0.30;;;;;;;15.81;40.49;101433.25;4986327;28;20057;-67
2021/10/04 11:00:38;;;;;;;1.23;0.30;;;;;;;17.02;38.06;101410.69;4956568;28;20072;-66
2021/10/04 11:03:09;;;;;;;5.10;0.43;;;;;;;16.25;39.63;101430.00;4984215;28;20096;-68
2021/10/04 11:05:38;;;;;;;2.67;0.32;;;;;;;16.64;38.41;101428.69;4986450;28;20057;-70
2021/10/04 11:08:29;;;;;;;2.20;0.30;;;;;;;17.15;37.75;101431.09;4986308;28;20107;-71
2021/10/04 11:10:57;;;;;;;2.85;0.28;;;;;;;16.96;37.72;101420.75;4987217;28;20044;-67
2021/10/04 11:13:25;;;;;;;2.75;0.50;;;;;;;17.22;38.90;101428.00;4966935;28;20034;-67
2021/10/04 11:15:54;;;;;;;3.00;0.40;;;;;;;17.92;37.24;101413.25;4987232;28;20050;-66
2021/10/04 11:18:20;;;;;;;6.55;0.75;;;;;;;17.76;36.68;101418.63;4986565;28;20404;-68
2021/10/04 11:20:46;;;;;;;2.40;0.30;;;;;;;18.47;36.79;101415.03;4984390;28;20046;-68
2021/10/04 11:23:13;;;;;;;3.65;0.52;;;;;;;18.05;35.92;101409.72;4977307;28;20136;-67
2021/10/04 11:25:52;;;;;;;4.93;0.20;;;;;;;18.43;35.77;101414.38;4965579;28;20078;-67
2021/10/04 11:28:20;;;;;;;0.95;0.20;;;;;;;18.09;36.03;101406.88;4977072;28;20442;-67
2021/10/04 11:31:05;;;;;;;2.47;0.30;;;;;;;18.77;36.49;101404.22;4974999;28;21207;-67